sensor_id;sensor_type;location;lat;lon;timestamp;pressure;altitude;pressure_sealevel;temperature;humidity
77410;BME280;66481;51.332;22.804;2024-03-17T00:00:22;99472.50;;;7.65;100.00
77410;BME280;66481;51.332;22.804;2024-03-17T00:04:43;99475.25;;;7.49;100.00
77410;BME280;66481;51.332;22.804;2024-03-17T00:08:47;99480.06;;;7.42;100.00
77410;BME280;66481;51.332;22.804;2024-03-17T00:12:48;99474.22;;;7.24;100.00
77410;BME280;66481;51.332;22.804;2024-03-17T00:16:49;99480.44;;;7.23;100.00
77410;BME280;66481;51.332;22.804;2024-03-17T00:20:50;99495.44;;;7.36;100.00
77410;BME280;66481;51.332;22.804;2024-03-17T00:24:51;99494.34;;;7.52;100.00
77410;BME280;66481;51.332;22.804;2024-03-17T00:28:53;99487.59;;;7.48;100.00
77410;BME280;66481;51.332;22.804;2024-03-17T00:32:54;99488.66;;;7.46;100.00
77410;BME280;66481;51.332;22.804;2024-03-17T00:36:56;99496.13;;;7.52;100.00
77410;BME280;66481;51.332;22.804;2024-03-17T00:40:57;99496.38;;;7.62;100.00
77410;BME280;66481;51.332;22.804;2024-03-17T00:44:58;99493.03;;;7.72;100.00
77410;BME280;66481;51.332;22.804;2024-03-17T00:49:00;99500.13;;;7.85;100.00
77410;BME280;66481;51.332;22.804;2024-03-17T00:53:02;99500.06;;;7.99;100.00
77410;BME280;66481;51.332;22.804;2024-03-17T00:57:04;99494.50;;;8.04;100.00
77410;BME280;66481;51.332;22.804;2024-03-17T01:01:05;99486.50;;;8.05;100.00
77410;BME280;66481;51.332;22.804;2024-03-17T01:05:07;99487.47;;;8.17;100.00
77410;BME280;66481;51.332;22.804;2024-03-17T01:09:08;99473.66;;;8.14;100.00
77410;BME280;66481;51.332;22.804;2024-03-17T01:13:09;99476.38;;;8.12;100.00
77410;BME280;66481;51.332;22.804;2024-03-17T01:17:11;99469.13;;;8.16;100.00
77410;BME280;66481;51.332;22.804;2024-03-17T01:21:12;99464.69;;;8.16;100.00
77410;BME280;66481;51.332;22.804;2024-03-17T01:25:14;99459.00;;;8.22;100.00
77410;BME280;66481;51.332;22.804;2024-03-17T01:29:16;99459.31;;;8.18;100.00
77410;BME280;66481;51.332;22.804;2024-03-17T01:33:17;99465.31;;;8.20;100.00
77410;BME280;66481;51.332;22.804;2024-03-17T01:37:18;99472.38;;;8.19;100.00
77410;BME280;66481;51.332;22.804;2024-03-17T01:41:19;99468.91;;;8.19;100.00
77410;BME280;66481;51.332;22.804;2024-03-17T01:45:27;99471.66;;;8.17;100.00
77410;BME280;66481;51.332;22.804;2024-03-17T01:49:29;99477.22;;;8.13;100.00
77410;BME280;66481;51.332;22.804;2024-03-17T01:53:31;99474.06;;;8.07;100.00
77410;BME280;66481;51.332;22.804;2024-03-17T01:57:32;99482.78;;;8.08;100.00
77410;BME280;66481;51.332;22.804;2024-03-17T02:01:34;99492.41;;;8.09;100.00
77410;BME280;66481;51.332;22.804;2024-03-17T02:05:36;99495.97;;;8.08;100.00
77410;BME280;66481;51.332;22.804;2024-03-17T02:09:41;99496.09;;;8.06;100.00
77410;BME280;66481;51.332;22.804;2024-03-17T02:13:45;99508.41;;;8.06;100.00
77410;BME280;66481;51.332;22.804;2024-03-17T02:17:49;99508.84;;;8.00;100.00
77410;BME280;66481;51.332;22.804;2024-03-17T02:21:50;99507.09;;;7.86;100.00
77410;BME280;66481;51.332;22.804;2024-03-17T02:25:51;99516.84;;;7.71;100.00
77410;BME280;66481;51.332;22.804;2024-03-17T02:29:52;99514.84;;;7.47;100.00
77410;BME280;66481;51.332;22.804;2024-03-17T02:33:55;99528.38;;;7.00;100.00
77410;BME280;66481;51.332;22.804;2024-03-17T02:37:56;99532.41;;;6.48;100.00
77410;BME280;66481;51.332;22.804;2024-03-17T02:41:58;99531.63;;;6.01;100.00
77410;BME280;66481;51.332;22.804;2024-03-17T02:45:59;99545.34;;;5.74;100.00
77410;BME280;66481;51.332;22.804;2024-03-17T02:50:01;99552.75;;;5.52;100.00
77410;BME280;66481;51.332;22.804;2024-03-17T02:54:02;99549.44;;;5.32;100.00
77410;BME280;66481;51.332;22.804;2024-03-17T02:58:03;99512.63;;;5.02;100.00
77410;BME280;66481;51.332;22.804;2024-03-17T03:02:04;99491.69;;;4.84;100.00
77410;BME280;66481;51.332;22.804;2024-03-17T03:06:06;99495.09;;;4.86;100.00
77410;BME280;66481;51.332;22.804;2024-03-17T03:10:10;99504.91;;;4.83;100.00
77410;BME280;66481;51.332;22.804;2024-03-17T03:14:11;99512.66;;;4.84;100.00
77410;BME280;66481;51.332;22.804;2024-03-17T03:18:13;99527.31;;;4.88;100.00
77410;BME280;66481;51.332;22.804;2024-03-17T03:22:14;99528.25;;;4.87;100.00
77410;BME280;66481;51.332;22.804;2024-03-17T03:26:15;99534.50;;;4.85;100.00
77410;BME280;66481;51.332;22.804;2024-03-17T03:30:16;99521.19;;;4.72;100.00
77410;BME280;66481;51.332;22.804;2024-03-17T03:34:21;99505.34;;;4.58;100.00
77410;BME280;66481;51.332;22.804;2024-03-17T03:38:25;99505.66;;;4.51;100.00
77410;BME280;66481;51.332;22.804;2024-03-17T03:42:26;99492.91;;;4.45;100.00
77410;BME280;66481;51.332;22.804;2024-03-17T03:46:28;99483.66;;;4.38;100.00
77410;BME280;66481;51.332;22.804;2024-03-17T03:50:29;99487.19;;;4.37;100.00
77410;BME280;66481;51.332;22.804;2024-03-17T03:54:33;99496.91;;;4.35;100.00
77410;BME280;66481;51.332;22.804;2024-03-17T03:58:38;99505.88;;;4.31;100.00
77410;BME280;66481;51.332;22.804;2024-03-17T04:02:42;99502.25;;;4.16;100.00
77410;BME280;66481;51.332;22.804;2024-03-17T04:06:44;99503.84;;;4.01;99.94
77410;BME280;66481;51.332;22.804;2024-03-17T04:10:45;99497.25;;;3.94;99.10
77410;BME280;66481;51.332;22.804;2024-03-17T04:14:46;99499.31;;;3.87;99.43
77410;BME280;66481;51.332;22.804;2024-03-17T04:18:53;99502.88;;;3.86;98.79
77410;BME280;66481;51.332;22.804;2024-03-17T04:22:56;99516.03;;;3.85;99.39
77410;BME280;66481;51.332;22.804;2024-03-17T04:27:01;99510.16;;;3.80;99.62
77410;BME280;66481;51.332;22.804;2024-03-17T04:31:05;99526.09;;;3.92;99.58
77410;BME280;66481;51.332;22.804;2024-03-17T04:35:07;99531.72;;;3.85;99.32
77410;BME280;66481;51.332;22.804;2024-03-17T04:39:08;99513.41;;;3.85;97.97
77410;BME280;66481;51.332;22.804;2024-03-17T04:43:10;99513.97;;;3.91;96.24
77410;BME280;66481;51.332;22.804;2024-03-17T04:47:11;99507.97;;;3.89;95.14
77410;BME280;66481;51.332;22.804;2024-03-17T04:51:16;99502.00;;;3.86;94.10
77410;BME280;66481;51.332;22.804;2024-03-17T04:55:17;99501.31;;;3.82;94.36
77410;BME280;66481;51.332;22.804;2024-03-17T04:59:22;99500.69;;;3.77;94.08
77410;BME280;66481;51.332;22.804;2024-03-17T05:03:23;99502.69;;;3.72;94.21
77410;BME280;66481;51.332;22.804;2024-03-17T05:07:24;99517.25;;;3.78;94.48
77410;BME280;66481;51.332;22.804;2024-03-17T05:11:26;99510.31;;;3.76;94.38
77410;BME280;66481;51.332;22.804;2024-03-17T05:15:27;99500.38;;;3.66;94.36
77410;BME280;66481;51.332;22.804;2024-03-17T05:19:29;99505.13;;;3.57;94.12
77410;BME280;66481;51.332;22.804;2024-03-17T05:23:32;99515.81;;;3.53;93.61
77410;BME280;66481;51.332;22.804;2024-03-17T05:27:35;99533.41;;;3.49;93.68
77410;BME280;66481;51.332;22.804;2024-03-17T05:31:37;99539.00;;;3.61;93.00
77410;BME280;66481;51.332;22.804;2024-03-17T05:35:39;99537.84;;;3.66;92.43
77410;BME280;66481;51.332;22.804;2024-03-17T05:39:41;99532.06;;;3.60;91.90
77410;BME280;66481;51.332;22.804;2024-03-17T05:43:42;99538.69;;;3.67;91.55
77410;BME280;66481;51.332;22.804;2024-03-17T05:47:43;99537.50;;;3.74;90.62
77410;BME280;66481;51.332;22.804;2024-03-17T05:51:45;99571.50;;;4.28;89.70
77410;BME280;66481;51.332;22.804;2024-03-17T05:55:48;99617.75;;;7.01;86.30
77410;BME280;66481;51.332;22.804;2024-03-17T05:59:50;99670.41;;;9.08;80.29
77410;BME280;66481;51.332;22.804;2024-03-17T06:03:51;99648.91;;;10.38;73.03
77410;BME280;66481;51.332;22.804;2024-03-17T06:07:52;99576.88;;;9.86;68.05
77410;BME280;66481;51.332;22.804;2024-03-17T06:11:53;99507.50;;;7.52;72.67
77410;BME280;66481;51.332;22.804;2024-03-17T06:15:55;99512.50;;;6.72;74.96
77410;BME280;66481;51.332;22.804;2024-03-17T06:20:01;99547.69;;;6.11;77.73
77410;BME280;66481;51.332;22.804;2024-03-17T06:24:06;99591.41;;;8.79;73.95
77410;BME280;66481;51.332;22.804;2024-03-17T06:28:11;99661.41;;;11.97;69.37
77410;BME280;66481;51.332;22.804;2024-03-17T06:32:16;99544.66;;;11.09;63.83
77410;BME280;66481;51.332;22.804;2024-03-17T06:36:18;99498.06;;;9.31;66.95
77410;BME280;66481;51.332;22.804;2024-03-17T06:40:20;99528.13;;;8.53;70.49
77410;BME280;66481;51.332;22.804;2024-03-17T06:44:21;99545.59;;;8.41;71.67
77410;BME280;66481;51.332;22.804;2024-03-17T06:48:26;99544.72;;;7.61;72.47
77410;BME280;66481;51.332;22.804;2024-03-17T06:52:28;99604.97;;;9.63;72.00
77410;BME280;66481;51.332;22.804;2024-03-17T06:56:30;99576.97;;;11.92;64.32
77410;BME280;66481;51.332;22.804;2024-03-17T07:00:33;99578.34;;;13.13;60.78
77410;BME280;66481;51.332;22.804;2024-03-17T07:04:36;99521.31;;;13.17;57.93
77410;BME280;66481;51.332;22.804;2024-03-17T07:08:37;99465.97;;;11.76;58.74
77410;BME280;66481;51.332;22.804;2024-03-17T07:12:39;99483.28;;;10.59;61.57
77410;BME280;66481;51.332;22.804;2024-03-17T07:16:40;99500.78;;;9.30;64.94
77410;BME280;66481;51.332;22.804;2024-03-17T07:20:41;99520.47;;;8.23;66.62
77410;BME280;66481;51.332;22.804;2024-03-17T07:24:42;99548.72;;;7.66;70.12
77410;BME280;66481;51.332;22.804;2024-03-17T07:28:45;99552.66;;;7.46;70.24
77410;BME280;66481;51.332;22.804;2024-03-17T07:32:46;99571.09;;;8.01;70.27
77410;BME280;66481;51.332;22.804;2024-03-17T07:36:47;99559.25;;;7.25;70.74
77410;BME280;66481;51.332;22.804;2024-03-17T07:41:00;99562.94;;;6.65;71.43
77410;BME280;66481;51.332;22.804;2024-03-17T07:45:02;99557.94;;;6.15;72.37
77410;BME280;66481;51.332;22.804;2024-03-17T07:49:05;99578.13;;;5.83;74.15
77410;BME280;66481;51.332;22.804;2024-03-17T07:53:07;99614.56;;;6.05;74.34
77410;BME280;66481;51.332;22.804;2024-03-17T07:57:08;99583.16;;;6.34;71.90
77410;BME280;66481;51.332;22.804;2024-03-17T08:01:14;99594.34;;;6.52;71.24
77410;BME280;66481;51.332;22.804;2024-03-17T08:05:16;99575.09;;;6.37;70.80
77410;BME280;66481;51.332;22.804;2024-03-17T08:09:18;99587.66;;;6.32;72.12
77410;BME280;66481;51.332;22.804;2024-03-17T08:13:23;99577.56;;;6.24;72.42
77410;BME280;66481;51.332;22.804;2024-03-17T08:17:24;99604.47;;;6.44;73.19
77410;BME280;66481;51.332;22.804;2024-03-17T08:21:27;99591.69;;;6.37;72.51
77410;BME280;66481;51.332;22.804;2024-03-17T08:25:30;99577.53;;;6.10;72.22
77410;BME280;66481;51.332;22.804;2024-03-17T08:29:32;99576.59;;;6.11;72.09
77410;BME280;66481;51.332;22.804;2024-03-17T08:33:34;99590.94;;;6.35;72.30
77410;BME280;66481;51.332;22.804;2024-03-17T08:37:38;99590.41;;;7.18;70.00
77410;BME280;66481;51.332;22.804;2024-03-17T08:41:39;99563.16;;;6.90;69.33
77410;BME280;66481;51.332;22.804;2024-03-17T08:45:41;99594.69;;;7.48;69.72
77410;BME280;66481;51.332;22.804;2024-03-17T08:49:42;99562.84;;;7.09;68.54
77410;BME280;66481;51.332;22.804;2024-03-17T08:53:44;99564.91;;;6.75;70.46
77410;BME280;66481;51.332;22.804;2024-03-17T08:57:45;99586.03;;;6.59;71.79
77410;BME280;66481;51.332;22.804;2024-03-17T09:01:49;99588.19;;;6.67;72.19
77410;BME280;66481;51.332;22.804;2024-03-17T09:05:50;99563.44;;;6.41;71.56
77410;BME280;66481;51.332;22.804;2024-03-17T09:09:59;99570.28;;;6.29;71.42
77410;BME280;66481;51.332;22.804;2024-03-17T09:14:01;99561.03;;;6.08;71.23
77410;BME280;66481;51.332;22.804;2024-03-17T09:18:04;99575.44;;;6.31;71.46
77410;BME280;66481;51.332;22.804;2024-03-17T09:22:06;99574.03;;;6.25;71.60
77410;BME280;66481;51.332;22.804;2024-03-17T09:26:09;99570.84;;;6.34;71.31
77410;BME280;66481;51.332;22.804;2024-03-17T09:30:12;99570.53;;;6.55;70.98
77410;BME280;66481;51.332;22.804;2024-03-17T09:34:13;99571.41;;;6.84;70.03
77410;BME280;66481;51.332;22.804;2024-03-17T09:38:16;99574.50;;;6.91;71.01
77410;BME280;66481;51.332;22.804;2024-03-17T09:42:18;99566.59;;;6.76;71.09
77410;BME280;66481;51.332;22.804;2024-03-17T09:46:27;99558.72;;;7.05;70.26
77410;BME280;66481;51.332;22.804;2024-03-17T09:50:31;99598.16;;;8.44;69.92
77410;BME280;66481;51.332;22.804;2024-03-17T09:54:35;99541.63;;;9.74;62.90
77410;BME280;66481;51.332;22.804;2024-03-17T09:58:39;99481.94;;;7.95;61.72
77410;BME280;66481;51.332;22.804;2024-03-17T10:02:45;99518.69;;;7.56;63.83
77410;BME280;66481;51.332;22.804;2024-03-17T10:06:47;99533.97;;;7.37;65.49
77410;BME280;66481;51.332;22.804;2024-03-17T10:10:52;99517.22;;;6.96;65.64
77410;BME280;66481;51.332;22.804;2024-03-17T10:15:00;99538.06;;;6.99;66.21
77410;BME280;66481;51.332;22.804;2024-03-17T10:23:20;99538.66;;;8.00;63.53
77410;BME280;66481;51.332;22.804;2024-03-17T10:27:23;99497.97;;;7.64;61.50
77410;BME280;66481;51.332;22.804;2024-03-17T10:31:26;99497.38;;;7.46;62.43
77410;BME280;66481;51.332;22.804;2024-03-17T10:35:38;99505.91;;;7.08;63.65
77410;BME280;66481;51.332;22.804;2024-03-17T10:39:41;99505.94;;;6.94;64.30
77410;BME280;66481;51.332;22.804;2024-03-17T10:43:43;99518.06;;;6.82;64.41
77410;BME280;66481;51.332;22.804;2024-03-17T10:47:50;99521.63;;;6.67;65.04
77410;BME280;66481;51.332;22.804;2024-03-17T10:51:56;99541.59;;;6.69;66.12
77410;BME280;66481;51.332;22.804;2024-03-17T10:56:05;99524.25;;;6.52;66.42
77410;BME280;66481;51.332;22.804;2024-03-17T11:00:12;99549.59;;;6.68;67.46
77410;BME280;66481;51.332;22.804;2024-03-17T11:04:21;99555.63;;;6.84;67.77
77410;BME280;66481;51.332;22.804;2024-03-17T11:08:23;99570.00;;;7.07;68.24
77410;BME280;66481;51.332;22.804;2024-03-17T11:16:39;99528.47;;;6.69;65.81
77410;BME280;66481;51.332;22.804;2024-03-17T11:20:42;99541.78;;;6.52;67.51
77410;BME280;66481;51.332;22.804;2024-03-17T11:24:43;99557.38;;;6.40;69.07
77410;BME280;66481;51.332;22.804;2024-03-17T11:28:46;99551.75;;;6.16;69.05
77410;BME280;66481;51.332;22.804;2024-03-17T11:32:48;99547.59;;;6.12;69.68
77410;BME280;66481;51.332;22.804;2024-03-17T11:36:49;99547.41;;;5.85;70.34
77410;BME280;66481;51.332;22.804;2024-03-17T11:40:51;99542.22;;;5.83;70.66
77410;BME280;66481;51.332;22.804;2024-03-17T11:44:57;99561.63;;;5.97;71.48
77410;BME280;66481;51.332;22.804;2024-03-17T11:49:03;99561.91;;;6.22;71.04
77410;BME280;66481;51.332;22.804;2024-03-17T11:53:09;99552.78;;;6.14;70.71
77410;BME280;66481;51.332;22.804;2024-03-17T11:57:20;99569.88;;;6.21;71.10
77410;BME280;66481;51.332;22.804;2024-03-17T12:01:29;99566.28;;;6.08;71.49
77410;BME280;66481;51.332;22.804;2024-03-17T12:05:31;99563.41;;;5.96;71.63
77410;BME280;66481;51.332;22.804;2024-03-17T12:09:41;99567.19;;;5.91;72.09
77410;BME280;66481;51.332;22.804;2024-03-17T12:13:44;99569.00;;;5.90;72.62
77410;BME280;66481;51.332;22.804;2024-03-17T12:17:46;99574.66;;;5.98;72.85
77410;BME280;66481;51.332;22.804;2024-03-17T12:21:57;99567.91;;;5.78;72.44
77410;BME280;66481;51.332;22.804;2024-03-17T12:26:01;99559.34;;;5.75;72.73
77410;BME280;66481;51.332;22.804;2024-03-17T12:30:03;99573.22;;;5.93;73.23
77410;BME280;66481;51.332;22.804;2024-03-17T12:34:05;99569.91;;;6.05;72.46
77410;BME280;66481;51.332;22.804;2024-03-17T12:38:21;99566.28;;;6.08;72.45
77410;BME280;66481;51.332;22.804;2024-03-17T12:42:27;99556.03;;;6.03;71.48
77410;BME280;66481;51.332;22.804;2024-03-17T12:46:29;99558.72;;;6.01;72.05
77410;BME280;66481;51.332;22.804;2024-03-17T12:50:32;99558.16;;;5.96;73.07
77410;BME280;66481;51.332;22.804;2024-03-17T12:54:34;99551.78;;;5.84;72.42
77410;BME280;66481;51.332;22.804;2024-03-17T12:58:35;99539.28;;;5.74;72.34
77410;BME280;66481;51.332;22.804;2024-03-17T13:02:55;99541.56;;;5.80;72.23
77410;BME280;66481;51.332;22.804;2024-03-17T13:06:57;99544.59;;;6.04;72.13
77410;BME280;66481;51.332;22.804;2024-03-17T13:10:59;99562.97;;;6.34;71.97
77410;BME280;66481;51.332;22.804;2024-03-17T13:15:01;99555.97;;;6.49;71.51
77410;BME280;66481;51.332;22.804;2024-03-17T13:19:03;99536.56;;;6.21;71.19
77410;BME280;66481;51.332;22.804;2024-03-17T13:23:05;99536.06;;;6.00;71.24
77410;BME280;66481;51.332;22.804;2024-03-17T13:27:07;99540.34;;;6.01;71.91
77410;BME280;66481;51.332;22.804;2024-03-17T13:31:10;99551.38;;;5.92;72.58
77410;BME280;66481;51.332;22.804;2024-03-17T13:35:17;99548.41;;;5.82;72.21
77410;BME280;66481;51.332;22.804;2024-03-17T13:39:20;99524.81;;;5.51;71.74
77410;BME280;66481;51.332;22.804;2024-03-17T13:43:23;99534.81;;;5.28;72.51
77410;BME280;66481;51.332;22.804;2024-03-17T13:47:24;99527.34;;;5.20;73.07
77410;BME280;66481;51.332;22.804;2024-03-17T13:51:32;99537.31;;;5.14;74.35
77410;BME280;66481;51.332;22.804;2024-03-17T13:55:34;99544.25;;;4.99;74.95
77410;BME280;66481;51.332;22.804;2024-03-17T13:59:36;99546.19;;;4.95;74.93
77410;BME280;66481;51.332;22.804;2024-03-17T14:03:38;99571.28;;;4.83;76.47
77410;BME280;66481;51.332;22.804;2024-03-17T14:07:42;99584.78;;;4.58;79.57
77410;BME280;66481;51.332;22.804;2024-03-17T14:11:45;99595.53;;;4.54;81.58
77410;BME280;66481;51.332;22.804;2024-03-17T14:15:47;99605.41;;;4.48;82.50
77410;BME280;66481;51.332;22.804;2024-03-17T14:19:49;99606.53;;;4.43;83.00
77410;BME280;66481;51.332;22.804;2024-03-17T14:23:51;99611.94;;;4.40;82.99
77410;BME280;66481;51.332;22.804;2024-03-17T14:27:53;99597.44;;;4.32;82.29
77410;BME280;66481;51.332;22.804;2024-03-17T14:31:55;99592.75;;;4.22;82.00
77410;BME280;66481;51.332;22.804;2024-03-17T14:35:57;99592.53;;;4.26;81.71
77410;BME280;66481;51.332;22.804;2024-03-17T14:39:59;99589.44;;;4.36;80.22
77410;BME280;66481;51.332;22.804;2024-03-17T14:44:02;99589.91;;;4.26;80.09
77410;BME280;66481;51.332;22.804;2024-03-17T14:48:07;99593.59;;;4.22;80.00
77410;BME280;66481;51.332;22.804;2024-03-17T14:52:11;99582.88;;;4.09;79.32
77410;BME280;66481;51.332;22.804;2024-03-17T14:56:15;99571.91;;;4.01;79.17
77410;BME280;66481;51.332;22.804;2024-03-17T15:00:17;99572.00;;;4.00;79.06
77410;BME280;66481;51.332;22.804;2024-03-17T15:04:21;99567.47;;;4.03;78.98
77410;BME280;66481;51.332;22.804;2024-03-17T15:08:22;99577.84;;;4.05;79.94
77410;BME280;66481;51.332;22.804;2024-03-17T15:12:24;99586.94;;;3.98;79.88
77410;BME280;66481;51.332;22.804;2024-03-17T15:16:26;99600.66;;;4.03;80.98
77410;BME280;66481;51.332;22.804;2024-03-17T15:20:28;99598.28;;;3.98;80.66
77410;BME280;66481;51.332;22.804;2024-03-17T15:24:30;99594.84;;;3.96;81.35
77410;BME280;66481;51.332;22.804;2024-03-17T15:28:32;99595.81;;;3.95;81.21
77410;BME280;66481;51.332;22.804;2024-03-17T15:32:34;99589.41;;;4.01;81.99
77410;BME280;66481;51.332;22.804;2024-03-17T15:36:36;99586.94;;;3.98;81.71
77410;BME280;66481;51.332;22.804;2024-03-17T15:40:37;99597.25;;;4.01;81.99
77410;BME280;66481;51.332;22.804;2024-03-17T15:44:39;99597.41;;;3.98;81.19
77410;BME280;66481;51.332;22.804;2024-03-17T15:48:40;99599.94;;;3.99;81.73
77410;BME280;66481;51.332;22.804;2024-03-17T15:52:43;99606.91;;;4.00;81.85
77410;BME280;66481;51.332;22.804;2024-03-17T15:56:45;99594.03;;;3.95;81.81
77410;BME280;66481;51.332;22.804;2024-03-17T16:00:47;99616.44;;;4.01;82.35
77410;BME280;66481;51.332;22.804;2024-03-17T16:04:52;99610.66;;;3.94;81.61
77410;BME280;66481;51.332;22.804;2024-03-17T16:08:55;99603.72;;;3.93;82.05
77410;BME280;66481;51.332;22.804;2024-03-17T16:12:59;99609.94;;;3.91;81.92
77410;BME280;66481;51.332;22.804;2024-03-17T16:17:02;99605.84;;;3.85;82.12
77410;BME280;66481;51.332;22.804;2024-03-17T16:21:12;99606.44;;;3.73;82.80
77410;BME280;66481;51.332;22.804;2024-03-17T16:25:15;99611.41;;;3.79;82.52
77410;BME280;66481;51.332;22.804;2024-03-17T16:29:17;99613.38;;;3.74;82.36
77410;BME280;66481;51.332;22.804;2024-03-17T16:33:19;99619.66;;;3.70;82.71
77410;BME280;66481;51.332;22.804;2024-03-17T16:37:21;99608.72;;;3.62;83.24
77410;BME280;66481;51.332;22.804;2024-03-17T16:41:24;99618.63;;;3.55;83.47
77410;BME280;66481;51.332;22.804;2024-03-17T16:45:27;99626.69;;;3.50;83.08
77410;BME280;66481;51.332;22.804;2024-03-17T16:49:29;99617.63;;;3.38;83.53
77410;BME280;66481;51.332;22.804;2024-03-17T16:53:33;99633.13;;;3.43;83.84
77410;BME280;66481;51.332;22.804;2024-03-17T16:57:35;99636.69;;;3.41;84.03
77410;BME280;66481;51.332;22.804;2024-03-17T17:01:37;99644.47;;;3.42;83.92
77410;BME280;66481;51.332;22.804;2024-03-17T17:05:42;99639.47;;;3.37;84.18
77410;BME280;66481;51.332;22.804;2024-03-17T17:09:45;99644.22;;;3.48;83.81
77410;BME280;66481;51.332;22.804;2024-03-17T17:13:48;99632.81;;;3.49;82.53
77410;BME280;66481;51.332;22.804;2024-03-17T17:17:54;99642.50;;;3.47;81.05
77410;BME280;66481;51.332;22.804;2024-03-17T17:21:58;99631.47;;;3.41;80.64
77410;BME280;66481;51.332;22.804;2024-03-17T17:26:03;99622.28;;;3.32;80.14
77410;BME280;66481;51.332;22.804;2024-03-17T17:30:08;99621.63;;;3.27;79.76
77410;BME280;66481;51.332;22.804;2024-03-17T17:34:10;99629.72;;;3.22;80.14
77410;BME280;66481;51.332;22.804;2024-03-17T17:38:13;99629.00;;;3.18;80.66
77410;BME280;66481;51.332;22.804;2024-03-17T17:42:16;99642.19;;;3.15;81.12
77410;BME280;66481;51.332;22.804;2024-03-17T17:46:22;99639.91;;;3.08;81.68
77410;BME280;66481;51.332;22.804;2024-03-17T17:50:25;99643.38;;;3.08;82.21
77410;BME280;66481;51.332;22.804;2024-03-17T17:54:27;99643.47;;;3.07;82.88
77410;BME280;66481;51.332;22.804;2024-03-17T17:58:30;99638.09;;;3.10;82.01
77410;BME280;66481;51.332;22.804;2024-03-17T18:02:32;99634.03;;;3.03;82.62
77410;BME280;66481;51.332;22.804;2024-03-17T18:06:36;99646.91;;;3.07;82.60
77410;BME280;66481;51.332;22.804;2024-03-17T18:10:39;99643.78;;;2.99;82.77
77410;BME280;66481;51.332;22.804;2024-03-17T18:14:41;99642.94;;;2.98;82.77
77410;BME280;66481;51.332;22.804;2024-03-17T18:18:45;99641.88;;;3.03;83.08
77410;BME280;66481;51.332;22.804;2024-03-17T18:22:46;99653.31;;;3.00;82.67
77410;BME280;66481;51.332;22.804;2024-03-17T18:26:49;99655.00;;;3.01;83.78
77410;BME280;66481;51.332;22.804;2024-03-17T18:30:50;99666.66;;;2.94;84.98
77410;BME280;66481;51.332;22.804;2024-03-17T18:34:54;99676.38;;;2.90;86.85
77410;BME280;66481;51.332;22.804;2024-03-17T18:38:58;99677.19;;;2.72;88.73
77410;BME280;66481;51.332;22.804;2024-03-17T18:43:00;99673.97;;;2.65;88.71
77410;BME280;66481;51.332;22.804;2024-03-17T18:47:05;99683.94;;;2.55;88.97
77410;BME280;66481;51.332;22.804;2024-03-17T18:51:07;99679.69;;;2.32;89.26
77410;BME280;66481;51.332;22.804;2024-03-17T18:55:09;99670.94;;;2.11;90.75
77410;BME280;66481;51.332;22.804;2024-03-17T18:59:10;99680.78;;;2.04;92.20
77410;BME280;66481;51.332;22.804;2024-03-17T19:03:14;99693.53;;;1.88;93.47
77410;BME280;66481;51.332;22.804;2024-03-17T19:07:17;99711.09;;;1.61;94.75
77410;BME280;66481;51.332;22.804;2024-03-17T19:11:25;99726.63;;;1.16;96.53
77410;BME280;66481;51.332;22.804;2024-03-17T19:15:36;99714.88;;;0.79;97.60
77410;BME280;66481;51.332;22.804;2024-03-17T19:19:39;99727.56;;;0.63;98.59
77410;BME280;66481;51.332;22.804;2024-03-17T19:23:44;99727.88;;;0.52;99.92
77410;BME280;66481;51.332;22.804;2024-03-17T19:27:47;99736.75;;;0.46;100.00
77410;BME280;66481;51.332;22.804;2024-03-17T19:31:50;99745.34;;;0.48;100.00
77410;BME280;66481;51.332;22.804;2024-03-17T19:35:54;99743.72;;;0.46;100.00
77410;BME280;66481;51.332;22.804;2024-03-17T19:39:58;99739.44;;;0.43;100.00
77410;BME280;66481;51.332;22.804;2024-03-17T19:44:00;99755.13;;;0.42;100.00
77410;BME280;66481;51.332;22.804;2024-03-17T19:48:05;99747.09;;;0.48;100.00
77410;BME280;66481;51.332;22.804;2024-03-17T19:52:07;99750.63;;;0.47;100.00
77410;BME280;66481;51.332;22.804;2024-03-17T19:56:13;99747.59;;;0.32;100.00
77410;BME280;66481;51.332;22.804;2024-03-17T20:00:17;99744.19;;;0.30;100.00
77410;BME280;66481;51.332;22.804;2024-03-17T20:04:19;99764.06;;;0.33;100.00
77410;BME280;66481;51.332;22.804;2024-03-17T20:08:20;99757.28;;;0.27;100.00
77410;BME280;66481;51.332;22.804;2024-03-17T20:12:21;99745.00;;;0.32;100.00
77410;BME280;66481;51.332;22.804;2024-03-17T20:16:24;99744.22;;;0.29;100.00
77410;BME280;66481;51.332;22.804;2024-03-17T20:20:32;99736.38;;;0.30;100.00
77410;BME280;66481;51.332;22.804;2024-03-17T20:24:33;99742.59;;;0.26;100.00
77410;BME280;66481;51.332;22.804;2024-03-17T20:28:37;99740.78;;;0.28;100.00
77410;BME280;66481;51.332;22.804;2024-03-17T20:32:42;99737.13;;;0.34;100.00
77410;BME280;66481;51.332;22.804;2024-03-17T20:36:45;99737.97;;;0.34;100.00
77410;BME280;66481;51.332;22.804;2024-03-17T20:40:46;99731.22;;;0.29;100.00
77410;BME280;66481;51.332;22.804;2024-03-17T20:44:49;99719.94;;;0.30;100.00
77410;BME280;66481;51.332;22.804;2024-03-17T20:48:50;99715.59;;;0.29;100.00
77410;BME280;66481;51.332;22.804;2024-03-17T20:52:52;99716.44;;;0.29;100.00
77410;BME280;66481;51.332;22.804;2024-03-17T20:56:55;99712.38;;;0.21;100.00
77410;BME280;66481;51.332;22.804;2024-03-17T21:00:58;99715.00;;;0.21;100.00
77410;BME280;66481;51.332;22.804;2024-03-17T21:05:01;99706.47;;;0.15;100.00
77410;BME280;66481;51.332;22.804;2024-03-17T21:09:03;99704.63;;;0.19;100.00
77410;BME280;66481;51.332;22.804;2024-03-17T21:13:06;99701.38;;;0.12;100.00
77410;BME280;66481;51.332;22.804;2024-03-17T21:17:09;99706.59;;;0.12;100.00
77410;BME280;66481;51.332;22.804;2024-03-17T21:21:13;99698.53;;;0.20;100.00
77410;BME280;66481;51.332;22.804;2024-03-17T21:25:16;99700.53;;;0.12;100.00
77410;BME280;66481;51.332;22.804;2024-03-17T21:29:19;99701.28;;;0.15;100.00